Latest Coastal Weather Observations for King Island Airport

IDT60701

Issued at 11:51 am EST Wednesday 4 May 2016 (issued every 10 minutes, with the page automatically refreshed every 10 minutes)

About coastal observations | Map of coastal stations | Coastal observations for TAS | Marine services | Other Formats
Station Details ID: 098017 Name: KING ISLAND AIRPORT Lat: -39.88 Lon: 143.88 Height: 37.0 m
Data from the previous 72 hours. | See also: Recent months at King Island Airport
Date/Time
EST
Temp

°C
Wind Pressure Rain
since 9am
mm
Weather Cloud Vis
km
Sea
Height
m
Swell
Dir
 
Speed
knots
Gust
knots
hPa Trend Height
m
Period
s
Dir
04/11:30am 14.3 NW 19 25 1011.9 - 0.0 - Partly cloudy 10 - - - -
04/11:00am 14.3 WNW 19 24 1012.0 - 0.0 - Partly cloudy 10 - - - -
04/10:30am 14.6 WNW 18 26 1011.9 - 0.0 - Partly cloudy 10 - - - -
04/10:00am 13.7 WNW 18 23 1012.0 - 0.0 - Partly cloudy 10 - - - -
04/09:30am 13.1 WNW 16 22 1011.7 - 0.0 - Partly cloudy 10 - - - -
04/09:00am 12.4 W 17 22 1011.6 - 10.4 - Mostly cloudy 10 - - - -
04/08:30am 12.7 WNW 15 22 1011.3 - 10.4 - Partly cloudy 10 - - - -
04/08:00am 11.8 W 13 18 1011.0 - 10.4 - Partly cloudy 10 - - - -
04/07:30am 11.6 W 11 19 1010.4 - 10.4 - Partly cloudy 10 - - - -
04/07:00am 10.9 W 16 21 1009.9 - 10.4 - Partly cloudy 10 - - - -
04/06:30am 11.2 W 15 22 1009.3 - 10.4 - Partly cloudy 10 - - - -
04/06:00am 10.2 WSW 16 22 1009.2 - 10.4 Rain Partly cloudy 10 - - - -
04/05:52am 10.1 WSW 16 23 1009.2 - 10.4 - Partly cloudy 10 - - - -
04/05:35am 9.7 W 19 32 1009.2 - 10.0 - Partly cloudy 5 - - - -
04/05:30am 10.5 W 17 29 1009.0 - 9.4 - Partly cloudy 9 - - - -
04/05:28am 10.9 W 16 29 1008.7 - 9.2 - Partly cloudy 10 - - - -
04/05:00am 10.0 WSW 14 21 1008.4 - 9.2 - Partly cloudy 10 - - - -
04/04:37am 9.7 WSW 19 33 1008.2 - 9.2 - Partly cloudy 10 - - - -
04/04:30am 10.7 WSW 18 26 1007.8 - 9.2 - Partly cloudy 10 - - - -
04/04:00am 10.9 W 17 29 1007.2 - 9.2 - Partly cloudy 10 - - - -
04/03:44am 11.8 W 18 29 1006.9 - 9.0 - Partly cloudy 10 - - - -
04/03:30am 11.5 W 19 27 1006.8 - 9.0 - Partly cloudy 10 - - - -
04/03:00am 11.6 W 21 31 1006.5 - 9.0 - Mostly clear 10 - - - -
04/02:38am 11.0 WSW 18 28 1006.4 - 9.0 - Partly cloudy 10 - - - -
04/02:30am 11.1 WSW 19 28 1006.2 - 9.0 - Partly cloudy 10 - - - -
04/02:26am 11.0 WSW 19 26 1006.1 - 9.0 - Partly cloudy 10 - - - -
04/02:00am 11.3 W 19 30 1005.8 - 9.0 - Partly cloudy 10 - - - -
04/01:30am 11.6 W 20 31 1005.5 - 8.8 - Partly cloudy 10 - - - -
04/01:00am 11.6 W 22 34 1005.3 - 8.8 - Partly cloudy 10 - - - -
04/12:30am 11.3 W 23 36 1005.0 - 8.8 - Partly cloudy 10 - - - -
04/12:00am 11.0 W 24 38 1004.6 - 8.8 Drizzle Partly cloudy 10 - - - -
 
Date/Time
EST
Temp

°C
Wind Pressure Rain
since 9am
mm
Weather Cloud Vis
km
Sea
Height
m
Swell
Dir
 
Speed
knots
Gust
knots
hPa Trend Height
m
Period
s
Dir
03/11:30pm 11.2 W 23 33 1004.4 - 8.8 - Partly cloudy 10 - - - -
03/11:25pm 11.2 W 22 32 1004.3 - 8.8 - Partly cloudy 10 - - - -
03/11:15pm 10.2 WSW 24 39 1004.3 - 8.8 - Partly cloudy 10 - - - -
03/11:07pm 10.5 W 26 41 1004.4 - 8.8 - Partly cloudy 10 - - - -
03/11:06pm 10.6 W 25 41 1004.4 - 8.8 - Partly cloudy 10 - - - -
03/11:00pm 11.5 W 22 32 1004.1 - 8.8 - Partly cloudy 10 - - - -
03/10:35pm 11.4 W 22 32 1003.8 - 8.8 - Partly cloudy 10 - - - -
03/10:30pm 11.2 W 22 31 1003.8 - 8.8 - Partly cloudy 10 - - - -
03/10:00pm 10.0 WSW 23 35 1003.7 - 8.8 - Partly cloudy 10 - - - -
03/09:55pm 10.1 W 25 35 1003.7 - 8.8 - Partly cloudy 10 - - - -
03/09:54pm 10.2 W 25 35 1003.8 - 8.8 - Partly cloudy 10 - - - -
03/09:34pm 10.8 WNW 21 31 1003.1 - 8.6 - Partly cloudy 10 - - - -
03/09:30pm 10.8 WNW 21 29 1003.1 - 8.6 - Partly cloudy 10 - - - -
03/09:15pm 10.0 W 21 31 1003.0 - 8.6 - Partly cloudy 7 - - - -
03/09:00pm 11.3 W 20 28 1002.7 - 8.2 Showers Cloudy 10 - - - -
03/08:48pm 10.4 WNW 18 24 1002.7 - 8.2 - Partly cloudy 10 - - - -
03/08:38pm 10.1 W 21 29 1002.5 - 8.2 - Partly cloudy 5 - - - -
03/08:30pm 10.7 WSW 21 32 1002.5 - 8.0 - Partly cloudy 8 - - - -
03/08:00pm 12.2 W 24 34 1001.6 - 7.8 - Partly cloudy 10 - - - -
03/07:30pm 11.5 WNW 29 40 1001.2 - 7.8 - Partly cloudy 10 - - - -
03/07:00pm 12.3 WNW 25 35 1000.9 - 7.8 - Partly cloudy 10 - - - -
03/06:47pm 12.1 W 22 32 1000.6 - 7.8 - Partly cloudy 10 - - - -
03/06:30pm 12.1 WNW 24 32 1000.2 - 7.8 - Partly cloudy 10 - - - -
03/06:01pm 10.9 W 22 32 999.9 - 7.8 - Partly cloudy 10 - - - -
03/06:00pm 10.9 W 23 32 999.9 - 7.8 - Cloudy 10 - - - -
03/05:30pm 11.6 W 23 35 999.1 - 7.8 - Partly cloudy 10 - - - -
03/05:01pm 11.5 W 21 31 998.6 - 7.8 - Partly cloudy 10 - - - -
03/05:00pm 11.3 W 20 29 998.6 - 7.8 - Partly cloudy 10 - - - -
03/04:30pm 10.7 W 24 37 998.0 - 7.8 - Partly cloudy 10 - - - -
03/04:17pm 10.7 W 27 43 997.6 - 7.8 - Partly cloudy 10 - - - -
03/04:10pm 11.0 W 24 43 997.4 - 7.8 - Partly cloudy 10 - - - -
03/04:05pm 10.8 W 27 43 997.1 - 7.8 - Partly cloudy 5 - - - -
03/04:04pm 10.6 W 28 43 997.1 - 7.8 - Partly cloudy 5 - - - -
03/04:00pm 10.4 W 29 43 997.2 - 7.8 - Partly cloudy 5 - - - -
03/03:59pm 10.6 W 29 43 997.1 - 7.6 - Partly cloudy 6 - - - -
03/03:40pm 12.4 WNW 23 36 996.5 - 7.2 - Partly cloudy 10 - - - -
03/03:38pm 12.3 WNW 23 32 996.5 - 7.2 - Partly cloudy 10 - - - -
03/03:30pm 10.9 WNW 21 32 996.4 - 7.2 - Partly cloudy 10 - - - -
03/03:22pm 10.2 W 25 45 996.5 - 7.2 - Partly cloudy 5 - - - -
03/03:17pm 10.6 W 22 42 997.1 - 6.8 - Partly cloudy 10 - - - -
03/03:03pm 12.5 W 18 28 995.9 - 6.4 - Partly cloudy 10 - - - -
03/03:00pm 12.8 W 19 28 995.8 - 6.4 Rain Partly cloudy 10 - - - -
03/02:30pm 11.2 W 24 37 995.6 - 6.4 - Partly cloudy 6 - - - -
03/02:00pm 12.5 W 23 35 994.8 - 6.4 - Partly cloudy 10 - - - -
03/01:48pm 12.0 W 21 33 994.7 - 6.4 - Partly cloudy 10 - - - -
03/01:32pm 11.1 W 24 34 994.5 - 6.4 - Partly cloudy 4 - - - -
03/01:30pm 11.2 W 25 34 994.5 - 6.4 - Partly cloudy 5 - - - -
03/01:29pm 11.2 W 25 34 994.5 - 6.2 - Partly cloudy 5 - - - -
03/01:14pm 11.8 W 25 36 994.4 - 5.8 - Partly cloudy 6 - - - -
03/01:04pm 11.9 W 27 37 994.4 - 5.4 - Partly cloudy 5 - - - -
03/01:01pm 11.9 W 27 35 994.4 - 5.4 - Partly cloudy 5 - - - -
03/01:00pm 12.1 W 28 35 994.5 - 5.4 - Partly cloudy 6 - - - -
03/12:48pm 12.3 W 21 31 994.1 - 5.4 - Partly cloudy 10 - - - -
03/12:35pm 12.2 W 20 28 994.2 - 5.4 - Partly cloudy 9 - - - -
03/12:30pm 12.0 W 19 28 994.0 - 5.4 - Partly cloudy 8 - - - -
03/12:27pm 12.1 W 18 28 994.1 - 5.4 - Partly cloudy 8 - - - -
03/12:14pm 11.8 W 20 28 994.4 - 5.2 - Partly cloudy 4 - - - -
03/12:00pm 11.6 W 21 31 994.6 - 4.0 Showers Cloudy 2 - - - -
03/11:56am 12.4 W 20 31 994.4 - 3.4 - Partly cloudy 3 - - - -
03/11:49am 13.1 W 19 28 994.2 - 3.0 - Partly cloudy 5 - - - -
03/11:30am 14.1 WNW 18 25 994.2 - 2.6 - Partly cloudy 10 - - - -
03/11:00am 13.6 WNW 19 26 994.4 - 2.6 - Partly cloudy 10 - - - -
03/10:39am 13.7 WNW 17 27 994.4 - 2.6 - Partly cloudy 10 - - - -
03/10:30am 13.5 WNW 16 21 994.1 - 2.6 - Partly cloudy 10 - - - -
03/10:25am 13.5 W 17 27 994.3 - 2.6 - Partly cloudy 9 - - - -
03/10:00am 13.7 W 18 27 994.3 - 2.6 - Partly cloudy 10 - - - -
03/09:36am 13.1 W 19 29 994.3 - 2.4 - Partly cloudy 10 - - - -
03/09:33am 12.8 W 20 29 994.4 - 2.4 - Partly cloudy 9 - - - -
03/09:30am 12.7 W 21 29 994.4 - 2.4 - Partly cloudy 7 - - - -
03/09:29am 12.7 W 21 31 994.4 - 2.4 - Partly cloudy 7 - - - -
03/09:10am 12.7 WNW 25 35 994.4 - 1.8 - Partly cloudy 2 - - - -
03/09:07am 12.5 WNW 28 36 994.3 - 1.8 - Partly cloudy 2 - - - -
03/09:00am 13.8 NW 30 38 993.6 - 27.2 Rain Cloudy 3 - - - -
03/08:48am 13.5 NW 31 41 993.7 - 26.4 - Partly cloudy 1 - - - -
03/08:47am 13.3 NW 32 41 993.8 - 26.4 - Partly cloudy 1 - - - -
03/08:30am 14.5 NNW 31 41 993.3 - 21.4 - Partly cloudy 7 - - - -
03/08:11am 14.1 NW 28 38 993.6 - 20.8 - Partly cloudy 4 - - - -
03/08:00am 14.3 NW 28 36 993.7 - 20.4 - Partly cloudy 5 - - - -
03/07:31am 13.9 NW 28 39 993.9 - 19.8 - Partly cloudy 4 - - - -
03/07:30am 13.9 NW 28 35 993.9 - 19.8 - Partly cloudy 4 - - - -
03/07:20am 14.1 NW 29 39 993.9 - 19.2 - Partly cloudy 3 - - - -
03/07:00am 14.0 NW 27 33 994.0 - 18.4 - Partly cloudy 3 - - - -
03/06:35am 13.7 NW 24 30 994.3 - 17.2 - Partly cloudy 5 - - - -
03/06:30am 13.6 NW 24 30 994.3 - 17.0 - Partly cloudy 4 - - - -
03/06:14am 13.7 NW 26 34 994.5 - 16.6 - Partly cloudy 4 - - - -
03/06:00am 13.5 NW 30 42 994.8 - 15.8 Rain Cloudy 2 - - - -
03/05:58am 13.3 NW 30 42 994.8 - 15.6 - Partly cloudy 2 - - - -
03/05:55am 13.3 NW 29 37 994.8 - 15.2 - Partly cloudy 2 - - - -
03/05:30am 13.2 WNW 28 39 994.6 - 10.4 - Partly cloudy 1 - - - -
03/05:16am 13.8 NW 35 45 995.3 - 2.6 - Partly cloudy 2 - - - -
03/05:14am 15.4 NW 34 43 995.3 - 0.2 - Partly cloudy 5 - - - -
03/05:00am 15.4 NNW 37 52 994.0 - 0.0 - Partly cloudy 8 - - - -
03/04:33am 15.9 NNW 33 45 994.2 - 0.0 - Partly cloudy 9 - - - -
03/04:30am 15.9 NNW 33 42 994.3 - 0.0 - Partly cloudy 9 - - - -
03/04:00am 15.8 NNW 34 47 994.4 - 0.0 - Partly cloudy 10 - - - -
03/03:30am 16.1 NNW 38 49 994.6 - 0.0 - Partly cloudy 9 - - - -
03/03:00am 16.2 NNW 38 52 995.1 - 0.0 - Cloudy 10 - - - -
03/02:30am 16.3 NNW 34 48 995.8 - 0.0 - Partly cloudy 10 - - - -
03/02:00am 16.3 NNW 34 45 996.2 - 0.0 - Partly cloudy 10 - - - -
03/01:30am 16.0 NNW 36 48 996.9 - 0.0 - Partly cloudy 10 - - - -
03/01:00am 16.1 NNW 33 45 997.3 - 0.0 - Partly cloudy 10 - - - -
03/12:30am 16.2 NNW 33 49 998.0 - 0.0 - Partly cloudy 10 - - - -
03/12:00am 16.3 NNW 33 43 998.2 - 0.0 - Cloudy 10 - - - -
 
Date/Time
EST
Temp

°C
Wind Pressure Rain
since 9am
mm
Weather Cloud Vis
km
Sea
Height
m
Swell
Dir
 
Speed
knots
Gust
knots
hPa Trend Height
m
Period
s
Dir
02/11:40pm 16.2 NNW 32 42 998.6 - 0.0 - Partly cloudy 10 - - - -
02/11:30pm 16.1 NNW 32 41 998.8 - 0.0 - Cloudy 10 - - - -
02/11:02pm 16.3 NNW 32 42 999.1 - 0.0 - Partly cloudy 10 - - - -
02/11:00pm 16.2 NNW 33 42 999.2 - 0.0 - Partly cloudy 10 - - - -
02/10:30pm 15.9 NNW 31 42 999.7 - 0.0 - Partly cloudy 10 - - - -
02/10:00pm 16.1 NNW 32 46 1000.2 - 0.0 - Partly cloudy 10 - - - -
02/09:30pm 16.1 NNW 29 40 1000.6 - 0.0 - Partly cloudy 10 - - - -
02/09:00pm 16.2 NNW 29 39 1000.9 - 0.0 - Partly cloudy 10 - - - -
02/08:33pm 16.1 NNW 28 39 1001.0 - 0.0 - Partly cloudy 10 - - - -
02/08:30pm 16.2 NNW 28 37 1001.1 - 0.0 - Partly cloudy 10 - - - -
02/08:00pm 16.6 NNW 29 40 1001.5 - 0.0 - Partly cloudy 10 - - - -
02/07:30pm 16.4 NNW 28 40 1002.0 - 0.0 - Partly cloudy 10 - - - -
02/07:03pm 16.4 NNW 30 40 1001.9 - 0.0 - Partly cloudy 10 - - - -
02/07:00pm 16.4 NNW 31 40 1001.9 - 0.0 - Partly cloudy 10 - - - -
02/06:39pm 16.0 NNW 27 38 1002.2 - 0.0 - Partly cloudy 10 - - - -
02/06:30pm 16.1 NNW 27 36 1002.3 - 0.0 - Partly cloudy 10 - - - -
02/06:00pm 16.1 NNW 30 38 1002.2 - 0.0 - Mostly cloudy 10 - - - -
02/05:31pm 16.7 NNW 29 41 1002.1 - 0.0 - Partly cloudy 10 - - - -
02/05:30pm 16.4 NNW 29 38 1002.1 - 0.0 - Partly cloudy 10 - - - -
02/05:00pm 16.3 NNW 30 38 1002.4 - 0.0 - Partly cloudy 10 - - - -
02/04:30pm 16.2 NNW 29 38 1002.7 - 0.0 - Partly cloudy 10 - - - -
02/04:00pm 16.1 NNW 32 38 1003.0 - 0.0 - Partly cloudy 10 - - - -
02/03:51pm 16.4 NNW 30 40 1003.0 - 0.0 - Partly cloudy 10 - - - -
02/03:30pm 16.1 NNW 32 41 1003.1 - 0.0 - Partly cloudy 10 - - - -
02/03:05pm 16.3 NNW 32 42 1003.4 - 0.0 - Partly cloudy 10 - - - -
02/03:00pm 16.3 NNW 32 41 1003.3 - 0.0 - Partly cloudy 10 - - - -
02/02:31pm 15.8 NW 29 39 1003.8 - 0.0 - Partly cloudy 10 - - - -
02/02:30pm 15.9 NW 30 39 1003.8 - 0.0 - Partly cloudy 10 - - - -
02/02:09pm 16.1 NW 31 41 1004.0 - 0.0 - Partly cloudy 10 - - - -
02/02:00pm 16.3 NNW 33 42 1004.1 - 0.0 - Partly cloudy 10 - - - -
02/01:34pm 16.0 NNW 29 39 1004.4 - 0.0 - Partly cloudy 10 - - - -
02/01:30pm 16.0 NNW 31 39 1004.5 - 0.0 - Partly cloudy 10 - - - -
02/01:05pm 15.3 NW 29 39 1005.1 - 0.0 - Partly cloudy 10 - - - -
02/01:00pm 15.5 NW 28 37 1005.1 - 0.0 - Partly cloudy 10 - - - -
02/12:55pm 15.3 NNW 29 39 1005.1 - 0.0 - Partly cloudy 10 - - - -
02/12:30pm 15.3 NNW 29 37 1005.4 - 0.0 - Partly cloudy 10 - - - -
02/12:00pm 14.7 NNW 29 37 1006.1 - 0.0 - Cloudy 10 - - - -
02/11:30am 15.0 NNW 27 34 1006.4 - 0.0 - Partly cloudy 10 - - - -
02/11:18am 15.0 NNW 28 38 1006.5 - 0.0 - Partly cloudy 10 - - - -
02/11:00am 14.9 NNW 29 37 1006.7 - 0.0 - Partly cloudy 10 - - - -
02/10:30am 14.5 NW 28 38 1006.8 - 0.0 - Partly cloudy 10 - - - -
02/10:01am 14.9 NNW 27 37 1007.1 - 0.0 - Partly cloudy 10 - - - -
02/10:00am 14.8 NNW 28 37 1007.0 - 0.0 - Partly cloudy 10 - - - -
02/09:30am 13.9 NW 27 34 1007.4 - 0.0 - Partly cloudy 10 - - - -
02/09:00am 13.7 NW 25 36 1007.9 - 5.8 Rain Cloudy 10 - - - -
02/08:54am 13.6 NW 26 36 1007.9 - 5.8 - Partly cloudy 10 - - - -
02/08:30am 13.2 NW 29 36 1008.0 - 5.8 - Partly cloudy 10 - - - -
02/08:25am 13.4 NW 27 36 1007.9 - 5.8 - Partly cloudy 9 - - - -
02/08:19am 13.2 NW 20 31 1007.8 - 5.8 - Partly cloudy 7 - - - -
02/08:05am 12.0 WNW 20 31 1008.0 - 5.6 - Partly cloudy 5 - - - -
02/08:04am 12.1 NW 21 31 1008.0 - 5.2 - Partly cloudy 6 - - - -
02/08:00am 12.6 NW 25 31 1008.1 - 5.0 - Partly cloudy 9 - - - -
02/07:30am 13.3 NW 25 30 1008.0 - 5.0 - Partly cloudy 10 - - - -
02/07:10am 13.2 NW 18 30 1008.1 - 5.0 - Partly cloudy 10 - - - -
02/07:00am 12.8 NW 17 24 1008.1 - 5.0 - Partly cloudy 10 - - - -
02/06:51am 12.4 NW 18 22 1008.3 - 5.0 - Partly cloudy 10 - - - -
02/06:40am 12.1 NW 21 31 1008.3 - 5.0 - Partly cloudy 5 - - - -
02/06:30am 12.6 NW 26 32 1008.4 - 4.6 - Partly cloudy 9 - - - -
02/06:17am 12.5 NW 22 32 1008.3 - 4.4 - Partly cloudy 5 - - - -
02/06:16am 12.7 NW 21 32 1008.4 - 4.4 - Partly cloudy 7 - - - -
02/06:00am 12.4 WNW 18 25 1008.4 - 3.8 Showers Cloudy 10 - - - -
02/05:55am 12.5 WNW 17 22 1008.5 - 3.8 - Partly cloudy 10 - - - -
02/05:44am 12.3 WNW 20 27 1008.6 - 3.8 - Partly cloudy 5 - - - -
02/05:30am 13.1 WNW 19 25 1008.4 - 3.2 - Partly cloudy 10 - - - -
02/05:00am 12.7 WNW 17 20 1008.6 - 3.2 - Partly cloudy 10 - - - -
02/04:48am 12.3 WNW 18 28 1008.7 - 3.2 - Partly cloudy 10 - - - -
02/04:30am 13.0 WNW 18 23 1008.7 - 3.2 - Partly cloudy 10 - - - -
02/04:00am 12.4 WNW 17 23 1009.1 - 3.2 - Partly cloudy 10 - - - -
02/03:59am 12.4 WNW 17 27 1009.1 - 3.2 - Partly cloudy 10 - - - -
02/03:30am 13.2 WNW 17 22 1009.4 - 3.2 - Partly cloudy 10 - - - -
02/03:00am 12.7 WNW 20 30 1009.7 - 3.2 - Mostly clear 10 - - - -
02/02:59am 12.7 WNW 20 30 1009.7 - 3.2 - Partly cloudy 10 - - - -
02/02:30am 13.0 WNW 21 28 1009.9 - 3.2 - Partly cloudy 10 - - - -
02/02:00am 12.9 WNW 21 30 1010.1 - 3.2 - Partly cloudy 10 - - - -
02/01:53am 13.1 WNW 19 30 1010.2 - 3.2 - Partly cloudy 10 - - - -
02/01:30am 12.9 WNW 20 28 1010.3 - 3.2 - Partly cloudy 10 - - - -
02/01:02am 12.7 WNW 17 29 1010.5 - 3.2 - Partly cloudy 10 - - - -
02/01:00am 12.6 WNW 16 23 1010.5 - 3.2 - Partly cloudy 10 - - - -
02/12:30am 13.0 W 19 30 1010.8 - 3.2 - Partly cloudy 10 - - - -
02/12:00am 12.9 W 20 30 1011.1 - 3.2 Drizzle Cloudy 10 - - - -
 
Date/Time
EST
Temp

°C
Wind Pressure Rain
since 9am
mm
Weather Cloud Vis
km
Sea
Height
m
Swell
Dir
 
Speed
knots
Gust
knots
hPa Trend Height
m
Period
s
Dir
01/11:57pm 12.9 W 20 30 1011.1 - 3.2 - Partly cloudy 10 - - - -
01/11:30pm 12.1 W 17 23 1011.2 - 3.2 - Partly cloudy 10 - - - -
01/11:06pm 12.5 W 19 29 1011.2 - 3.0 - Partly cloudy 10 - - - -
01/11:00pm 12.4 WNW 18 26 1011.3 - 3.0 - Partly cloudy 10 - - - -
01/10:30pm 12.9 WNW 18 28 1011.2 - 3.0 - Partly cloudy 10 - - - -
01/10:27pm 12.8 WNW 17 28 1011.2 - 3.0 - Partly cloudy 10 - - - -
01/10:00pm 13.0 W 20 28 1011.4 - 3.0 - Partly cloudy 10 - - - -
01/09:34pm 12.4 W 19 29 1011.2 - 3.0 - Partly cloudy 10 - - - -
01/09:30pm 12.5 W 20 29 1011.3 - 3.0 - Partly cloudy 10 - - - -
01/09:06pm 12.3 WSW 18 28 1011.1 - 3.0 - Partly cloudy 10 - - - -
01/09:00pm 12.0 WSW 18 27 1011.1 - 3.0 - Mostly cloudy 10 - - - -
01/08:43pm 12.7 W 19 29 1011.0 - 3.0 - Partly cloudy 10 - - - -
01/08:30pm 12.4 W 19 28 1011.0 - 3.0 - Partly cloudy 10 - - - -
01/08:00pm 12.2 W 18 25 1010.6 - 3.0 - Partly cloudy 10 - - - -
01/07:30pm 12.3 W 16 26 1010.5 - 3.0 - Partly cloudy 10 - - - -
01/07:00pm 12.0 W 18 28 1010.5 - 3.0 - Partly cloudy 10 - - - -
01/06:34pm 12.1 W 20 34 1010.3 - 3.0 - Partly cloudy 10 - - - -
01/06:30pm 12.4 W 19 25 1010.1 - 3.0 - Partly cloudy 10 - - - -
01/06:05pm 11.5 WSW 20 30 1009.9 - 3.0 - Partly cloudy 10 - - - -
01/06:00pm 12.4 W 20 29 1009.8 - 3.0 - Partly cloudy 10 - - - -
01/05:30pm 12.4 W 20 29 1009.2 - 3.0 - Partly cloudy 10 - - - -
01/05:20pm 12.9 WSW 21 31 1009.0 - 3.0 - Partly cloudy 10 - - - -
01/05:00pm 12.8 W 20 29 1008.9 - 3.0 - Partly cloudy 10 - - - -
01/04:44pm 11.9 WSW 21 31 1008.6 - 3.0 - Partly cloudy 10 - - - -
01/04:30pm 12.9 WSW 20 28 1008.4 - 3.0 - Partly cloudy 10 - - - -
01/04:00pm 12.9 WSW 21 33 1007.8 - 3.0 - Partly cloudy 10 - - - -
01/03:32pm 12.5 WSW 20 30 1007.4 - 2.8 - Partly cloudy 10 - - - -
01/03:30pm 12.5 WSW 21 30 1007.3 - 2.8 - Partly cloudy 10 - - - -
01/03:26pm 12.2 WSW 23 33 1007.3 - 2.8 - Partly cloudy 10 - - - -
01/03:15pm 11.3 WSW 24 36 1007.0 - 2.8 - Partly cloudy 5 - - - -
01/03:13pm 11.8 WSW 24 34 1006.9 - 2.6 - Partly cloudy 7 - - - -
01/03:00pm 12.2 WSW 24 42 1006.4 - 2.4 Showers Cloudy 5 - - - -
01/02:53pm 11.5 WSW 23 42 1006.5 - 2.4 - Partly cloudy 5 - - - -
01/02:30pm 12.8 WSW 22 33 1005.9 - 1.4 - Partly cloudy 8 - - - -
01/02:27pm 12.7 W 23 33 1005.7 - 1.4 - Partly cloudy 10 - - - -
01/02:11pm 12.8 WSW 24 33 1005.5 - 1.2 - Partly cloudy 10 - - - -
01/02:00pm 11.8 WSW 25 38 1005.3 - 1.2 - Partly cloudy 4 - - - -
01/01:53pm 11.5 WSW 27 38 1005.4 - 1.2 - Partly cloudy 5 - - - -
01/01:33pm 13.7 W 20 30 1004.8 - 0.4 - Partly cloudy 10 - - - -
01/01:30pm 13.2 WSW 21 30 1004.9 - 0.4 - Partly cloudy 10 - - - -
01/01:15pm 12.4 WSW 25 41 1004.8 - 0.4 - Partly cloudy 10 - - - -
01/01:00pm 14.2 WSW 25 33 1004.5 - 0.4 - Partly cloudy 10 - - - -
01/12:30pm 14.2 WSW 26 39 1004.1 - 0.4 - Partly cloudy 10 - - - -
01/12:01pm 14.0 WSW 22 32 1003.8 - 0.4 - Partly cloudy 10 - - - -
01/12:00pm 13.9 WSW 23 32 1003.8 - 0.4 Showers Partly cloudy 10 - - - -

Other Formats:

Comma delimited format used in spreadsheet applications
http://www.bom.gov.au/fwo/IDT60701/IDT60701.94850.axf

JavaScript Object Notation format (JSON) in row-major order
http://www.bom.gov.au/fwo/IDT60701/IDT60701.94850.json